Time;durP1;ratioP1;P1;durP2;ratioP2;P2;SDS_P1;SDS_P2;PMS_P1;PMS_P2;Temp;Humidity;BMP_temperature;BMP_pressure;BME280_temperature;BME280_humidity;BME280_pressure;Samples;Min_cycle;Max_cycle;Signal;HPM_P1;HPM_P2
2023/12/06 00:01:11;;;;;;;;;;;;;;;23.18;15.35;97873.59;5049206;28;19925;-85
2023/12/06 00:03:37;;;;;;;;;;;;;;;23.09;15.34;97873.38;5049238;28;20281;-85
2023/12/06 00:06:03;;;;;;;;;;;;;;;23.03;15.33;97879.94;5035671;28;20409;-84
2023/12/06 00:08:29;;;;;;;;;;;;;;;22.77;15.69;97878.84;5044300;28;19928;-84
2023/12/06 00:10:57;;;;;;;;;;;;;;;22.74;15.65;97882.50;5047409;28;20365;-84
2023/12/06 00:13:23;;;;;;;;;;;;;;;23.05;15.74;97877.47;5049043;28;19932;-84
2023/12/06 00:15:50;;;;;;;;;;;;;;;23.12;15.51;97874.53;5049897;28;19928;-84
2023/12/06 00:18:16;;;;;;;;;;;;;;;23.10;15.41;97869.38;5035202;28;20020;-84
2023/12/06 00:20:42;;;;;;;;;;;;;;;22.99;15.69;97870.78;5048074;28;19925;-84
2023/12/06 00:23:08;;;;;;;;;;;;;;;22.43;15.82;97867.88;5044409;28;20009;-84
2023/12/06 00:25:34;;;;;;;;;;;;;;;21.99;15.96;97876.66;5029036;28;20301;-84
2023/12/06 00:28:01;;;;;;;;;;;;;;;21.48;16.43;97877.81;5035444;28;19920;-84
2023/12/06 00:30:27;;;;;;;;;;;;;;;21.09;16.79;97872.00;5036423;28;19931;-84
2023/12/06 00:32:53;;;;;;;;;;;;;;;21.22;16.73;97875.81;5048966;28;19925;-84
2023/12/06 00:35:19;;;;;;;;;;;;;;;21.56;16.63;97872.94;5050034;28;19917;-84
2023/12/06 00:37:46;;;;;;;;;;;;;;;21.77;16.44;97872.59;5048622;28;19960;-84
2023/12/06 00:40:12;;;;;;;;;;;;;;;22.30;16.04;97866.13;5037127;28;20374;-84
2023/12/06 00:42:38;;;;;;;;;;;;;;;22.36;15.96;97865.19;5043406;28;19921;-84
2023/12/06 00:45:04;;;;;;;;;;;;;;;21.67;16.27;97862.38;5048138;28;20270;-84
2023/12/06 00:47:30;;;;;;;;;;;;;;;21.50;16.64;97866.22;5048140;28;20011;-84
2023/12/06 00:49:56;;;;;;;;;;;;;;;22.17;15.89;97870.78;5037935;28;19921;-84
2023/12/06 00:52:22;;;;;;;;;;;;;;;22.59;15.90;97867.97;5045253;28;20285;-84
2023/12/06 00:54:49;;;;;;;;;;;;;;;22.93;15.53;97875.31;5048689;28;19920;-84
2023/12/06 00:57:15;;;;;;;;;;;;;;;23.11;15.35;97873.75;5046325;28;20009;-84
2023/12/06 00:59:41;;;;;;;;;;;;;;;23.29;15.31;97879.72;5050069;28;19921;-84
2023/12/06 01:02:07;;;;;;;;;;;;;;;23.42;15.28;97876.31;5040529;28;19952;-84
2023/12/06 01:04:37;;;;;;;;;;;;;;;23.47;14.89;97870.97;5049165;28;20385;-84
2023/12/06 01:07:03;;;;;;;;;;;;;;;23.43;14.84;97877.91;5044939;28;20421;-84
2023/12/06 01:09:30;;;;;;;;;;;;;;;23.48;14.90;97874.56;5048466;28;19917;-84
2023/12/06 01:11:57;;;;;;;;;;;;;;;23.41;14.93;97872.69;5052171;28;19921;-84
2023/12/06 01:14:23;;;;;;;;;;;;;;;23.34;14.90;97875.63;5052373;28;19960;-84
2023/12/06 01:16:49;;;;;;;;;;;;;;;22.83;14.89;97865.91;5049194;28;19925;-84
2023/12/06 01:19:16;;;;;;;;;;;;;;;22.28;15.43;97869.38;5050126;28;19928;-84
2023/12/06 01:21:42;;;;;;;;;;;;;;;22.05;15.58;97872.16;5051620;28;19952;-84
2023/12/06 01:24:09;;;;;;;;;;;;;;;22.34;15.30;97867.63;5049949;28;20253;-84
2023/12/06 01:26:35;;;;;;;;;;;;;;;22.50;15.08;97876.13;5039385;28;19962;-84
2023/12/06 01:29:03;;;;;;;;;;;;;;;22.64;15.00;97873.09;5035915;28;20073;-84
2023/12/06 01:31:29;;;;;;;;;;;;;;;22.77;14.67;97864.84;5047722;28;19929;-83
2023/12/06 01:33:55;;;;;;;;;;;;;;;22.16;14.97;97869.97;5047937;28;19969;-84
2023/12/06 01:36:22;;;;;;;;;;;;;;;21.77;15.32;97870.59;5049789;28;20381;-84
2023/12/06 01:38:48;;;;;;;;;;;;;;;21.33;15.52;97871.66;5051628;28;20011;-84
2023/12/06 01:41:17;;;;;;;;;;;;;;;21.17;15.46;97876.25;5050320;28;20329;-84
2023/12/06 01:43:44;;;;;;;;;;;;;;;21.59;15.16;97870.06;5049208;28;19999;-84
2023/12/06 01:46:10;;;;;;;;;;;;;;;21.71;14.92;97866.69;5049887;28;20334;-84
2023/12/06 01:48:37;;;;;;;;;;;;;;;21.91;14.94;97864.78;5050485;28;19974;-84
2023/12/06 01:51:04;;;;;;;;;;;;;;;22.09;14.63;97870.09;5051691;28;19939;-84
2023/12/06 01:53:33;;;;;;;;;;;;;;;22.07;14.67;97866.13;5028057;28;19921;-84
2023/12/06 01:55:59;;;;;;;;;;;;;;;22.10;14.78;97863.28;5043216;28;19944;-84
2023/12/06 01:58:27;;;;;;;;;;;;;;;22.02;14.83;97870.22;5034285;28;20373;-84
2023/12/06 02:00:53;;;;;;;;;;;;;;;21.69;15.06;97869.13;5048943;28;19925;-84
2023/12/06 02:03:19;;;;;;;;;;;;;;;21.63;15.38;97868.03;5050109;28;19925;-84
2023/12/06 02:05:46;;;;;;;;;;;;;;;21.71;15.20;97863.09;5036101;28;20019;-84
2023/12/06 02:08:13;;;;;;;;;;;;;;;21.60;15.16;97860.50;5044987;28;19917;-83
2023/12/06 02:10:39;;;;;;;;;;;;;;;21.46;15.55;97857.13;5042893;28;20008;-83
2023/12/06 02:13:05;;;;;;;;;;;;;;;20.87;15.55;97845.53;5046056;28;19921;-83
2023/12/06 02:15:31;;;;;;;;;;;;;;;20.36;16.03;97852.09;5047996;28;19917;-82
2023/12/06 02:17:57;;;;;;;;;;;;;;;20.26;16.46;97847.44;5047243;27;19925;-83
2023/12/06 02:20:24;;;;;;;;;;;;;;;20.62;16.08;97855.00;5038964;28;20365;-83
2023/12/06 02:22:51;;;;;;;;;;;;;;;20.63;16.12;97856.56;5043408;28;19960;-83
2023/12/06 02:25:17;;;;;;;;;;;;;;;20.43;16.47;97865.97;5049818;28;19928;-83
2023/12/06 02:27:44;;;;;;;;;;;;;;;20.66;16.38;97860.53;5031554;28;20339;-83
2023/12/06 02:30:11;;;;;;;;;;;;;;;20.77;16.24;97858.41;5037540;28;19960;-83
2023/12/06 02:32:37;;;;;;;;;;;;;;;20.66;16.48;97857.75;5047202;28;19929;-83
2023/12/06 02:35:06;;;;;;;;;;;;;;;20.64;16.48;97860.97;5041212;28;20456;-83
2023/12/06 02:37:32;;;;;;;;;;;;;;;20.86;16.25;97849.53;5050752;28;19988;-83
2023/12/06 02:40:00;;;;;;;;;;;;;;;21.30;16.06;97858.53;5050778;28;19927;-83
2023/12/06 02:42:27;;;;;;;;;;;;;;;21.71;15.88;97849.13;5045308;28;19921;-83
2023/12/06 02:44:53;;;;;;;;;;;;;;;22.04;15.58;97851.00;5049410;28;19921;-83
2023/12/06 02:47:19;;;;;;;;;;;;;;;22.33;15.22;97846.50;5049546;28;19920;-83
2023/12/06 02:49:45;;;;;;;;;;;;;;;22.56;15.23;97838.06;5042728;28;19921;-83
2023/12/06 02:52:12;;;;;;;;;;;;;;;22.33;15.04;97838.09;5036876;28;19921;-83
2023/12/06 02:54:39;;;;;;;;;;;;;;;21.33;15.55;97840.16;5049361;28;19921;-83
2023/12/06 02:57:05;;;;;;;;;;;;;;;21.01;15.99;97837.78;5050549;28;19916;-83
2023/12/06 02:59:31;;;;;;;;;;;;;;;21.00;16.09;97841.00;5038450;28;19946;-83
2023/12/06 03:01:57;;;;;;;;;;;;;;;20.85;16.18;97839.59;5040025;28;19964;-84
2023/12/06 03:04:23;;;;;;;;;;;;;;;20.78;16.36;97842.47;5049618;28;19931;-83
2023/12/06 03:06:49;;;;;;;;;;;;;;;20.77;16.59;97843.69;5045836;28;20294;-84
2023/12/06 03:09:15;;;;;;;;;;;;;;;20.38;16.97;97852.47;5020006;28;19993;-84
2023/12/06 03:11:41;;;;;;;;;;;;;;;20.40;16.92;97856.44;5046125;28;20404;-84
2023/12/06 03:14:07;;;;;;;;;;;;;;;20.00;17.07;97860.78;5050762;28;19927;-84
2023/12/06 03:16:33;;;;;;;;;;;;;;;19.69;17.64;97855.50;5044660;28;19917;-84
2023/12/06 03:19:01;;;;;;;;;;;;;;;20.08;17.46;97860.72;5037497;28;20027;-84
2023/12/06 03:21:27;;;;;;;;;;;;;;;20.52;17.03;97860.69;5046638;28;19928;-83
2023/12/06 03:23:54;;;;;;;;;;;;;;;20.48;17.04;97851.59;5044643;28;19921;-84
2023/12/06 03:26:20;;;;;;;;;;;;;;;20.44;17.22;97845.25;5042985;28;19952;-83
2023/12/06 03:28:46;;;;;;;;;;;;;;;20.98;16.87;97849.00;5044203;28;20377;-83
2023/12/06 03:31:12;;;;;;;;;;;;;;;20.66;16.92;97846.59;5044704;28;19932;-83
2023/12/06 03:33:38;;;;;;;;;;;;;;;20.21;17.36;97847.88;5028345;28;20024;-83
2023/12/06 03:36:04;;;;;;;;;;;;;;;20.68;17.13;97855.31;5046459;28;19929;-83
2023/12/06 03:38:31;;;;;;;;;;;;;;;21.17;16.79;97854.72;5036683;28;20345;-83
2023/12/06 03:40:59;;;;;;;;;;;;;;;21.72;16.50;97853.53;5043217;28;19957;-83
2023/12/06 03:43:25;;;;;;;;;;;;;;;22.19;15.84;97848.75;5041601;28;19979;-83
2023/12/06 03:45:51;;;;;;;;;;;;;;;22.37;15.73;97857.59;5044171;28;19921;-83
2023/12/06 03:48:17;;;;;;;;;;;;;;;22.42;15.82;97857.91;5031851;28;20452;-83
2023/12/06 03:50:43;;;;;;;;;;;;;;;22.72;15.52;97862.56;5048863;28;19935;-82
2023/12/06 03:53:09;;;;;;;;;;;;;;;22.94;15.50;97860.13;5049210;28;19921;-82
2023/12/06 03:55:35;;;;;;;;;;;;;;;23.07;15.15;97856.22;5046478;28;20373;-82
2023/12/06 03:58:01;;;;;;;;;;;;;;;22.96;15.46;97847.28;5020036;28;19929;-82
2023/12/06 04:00:28;;;;;;;;;;;;;;;22.14;15.86;97843.66;5039831;28;19932;-83
2023/12/06 04:02:56;;;;;;;;;;;;;;;21.31;16.89;97848.94;5049231;28;19924;-83
2023/12/06 04:05:22;;;;;;;;;;;;;;;21.20;16.83;97847.50;5045008;28;19921;-83
2023/12/06 04:07:48;;;;;;;;;;;;;;;21.16;17.01;97855.16;5048989;28;20035;-83
2023/12/06 04:10:14;;;;;;;;;;;;;;;20.12;17.77;97858.72;5030909;28;19921;-83
2023/12/06 04:12:40;;;;;;;;;;;;;;;19.84;18.14;97863.31;5035846;28;20013;-83
2023/12/06 04:15:06;;;;;;;;;;;;;;;19.86;18.29;97868.50;5034529;28;19924;-83
2023/12/06 04:17:32;;;;;;;;;;;;;;;20.13;17.91;97868.63;5045185;28;19939;-83
2023/12/06 04:19:58;;;;;;;;;;;;;;;19.50;18.56;97867.16;5046486;28;20037;-83
2023/12/06 04:22:25;;;;;;;;;;;;;;;19.35;18.72;97865.66;5049493;28;19952;-83
2023/12/06 04:24:53;;;;;;;;;;;;;;;19.31;18.88;97857.31;5031881;28;20402;-84
2023/12/06 04:27:19;;;;;;;;;;;;;;;19.88;18.28;97866.09;5049131;28;19917;-83
2023/12/06 04:29:45;;;;;;;;;;;;;;;20.07;18.18;97861.94;5041637;28;19977;-84
2023/12/06 04:32:11;;;;;;;;;;;;;;;20.35;17.95;97870.81;5028342;28;20278;-83
2023/12/06 04:34:46;;;;;;;;;;;;;;;20.14;18.00;97871.00;5045266;27;20013;-84
2023/12/06 04:37:12;;;;;;;;;;;;;;;19.92;18.31;97864.84;5053455;28;19923;-84
2023/12/06 04:39:38;;;;;;;;;;;;;;;18.98;18.88;97858.69;5051315;27;19932;-84
2023/12/06 04:42:04;;;;;;;;;;;;;;;19.26;18.96;97860.53;5047746;28;20007;-84
2023/12/06 04:44:30;;;;;;;;;;;;;;;19.14;19.01;97866.56;5047383;27;20044;-84
2023/12/06 04:46:56;;;;;;;;;;;;;;;19.68;18.58;97865.84;5051551;28;19921;-84
2023/12/06 04:49:22;;;;;;;;;;;;;;;19.76;18.33;97867.38;5050393;28;19921;-84
2023/12/06 04:51:48;;;;;;;;;;;;;;;19.71;18.50;97865.03;5058100;28;19927;-84
2023/12/06 04:54:15;;;;;;;;;;;;;;;20.11;18.12;97859.91;5018471;28;19921;-84
2023/12/06 04:56:41;;;;;;;;;;;;;;;19.77;18.53;97863.38;5029315;28;19960;-84
2023/12/06 04:59:07;;;;;;;;;;;;;;;19.92;18.27;97859.28;5037900;28;20319;-84
2023/12/06 05:01:33;;;;;;;;;;;;;;;19.87;18.09;97858.91;5040266;28;20010;-84
2023/12/06 05:03:59;;;;;;;;;;;;;;;19.69;18.42;97867.44;5042485;28;19933;-84
2023/12/06 05:06:25;;;;;;;;;;;;;;;20.04;17.98;97863.56;5051971;28;20037;-83
2023/12/06 05:08:51;;;;;;;;;;;;;;;19.74;18.32;97874.56;5044445;28;19928;-84
2023/12/06 05:11:17;;;;;;;;;;;;;;;20.08;17.97;97871.88;5040370;28;20362;-84
2023/12/06 05:13:43;;;;;;;;;;;;;;;19.38;18.50;97884.34;5052330;28;20015;-84
2023/12/06 05:16:09;;;;;;;;;;;;;;;19.05;18.84;97882.91;5035874;28;19921;-84
2023/12/06 05:18:35;;;;;;;;;;;;;;;18.83;19.03;97873.09;5045198;28;19917;-85
2023/12/06 05:21:01;;;;;;;;;;;;;;;17.53;20.14;97876.81;5048923;27;19999;-85
2023/12/06 05:23:28;;;;;;;;;;;;;;;17.65;20.23;97882.78;5035896;28;19928;-84
2023/12/06 05:25:54;;;;;;;;;;;;;;;16.79;20.97;97882.13;5041590;28;19940;-84
2023/12/06 05:28:20;;;;;;;;;;;;;;;16.73;21.18;97880.94;5046283;28;20442;-84
2023/12/06 05:30:46;;;;;;;;;;;;;;;18.10;19.98;97880.38;5045044;28;20314;-84
2023/12/06 05:33:15;;;;;;;;;;;;;;;16.42;21.47;97876.78;5047478;28;20407;-84
2023/12/06 05:35:41;;;;;;;;;;;;;;;16.18;21.83;97883.78;5047389;28;19917;-84
2023/12/06 05:38:07;;;;;;;;;;;;;;;17.03;21.13;97875.91;5022622;28;19925;-82
2023/12/06 05:40:33;;;;;;;;;;;;;;;17.85;20.21;97878.41;5049515;28;19928;-82
2023/12/06 05:43:00;;;;;;;;;;;;;;;18.08;19.76;97875.25;5044049;28;19920;-83
2023/12/06 05:45:26;;;;;;;;;;;;;;;18.94;19.12;97873.81;5051168;28;20396;-84
2023/12/06 05:47:52;;;;;;;;;;;;;;;19.25;18.63;97875.66;5048635;28;19917;-85
2023/12/06 05:50:18;;;;;;;;;;;;;;;19.09;18.63;97878.91;5048215;28;19921;-85
2023/12/06 05:52:44;;;;;;;;;;;;;;;19.26;18.66;97877.22;5038082;27;19928;-83
2023/12/06 05:55:11;;;;;;;;;;;;;;;18.53;19.29;97874.38;5052045;27;19925;-85
2023/12/06 05:57:37;;;;;;;;;;;;;;;17.23;20.63;97877.13;5049141;28;19928;-87
2023/12/06 06:00:05;;;;;;;;;;;;;;;17.93;19.94;97881.97;5043137;28;19927;-84
2023/12/06 06:02:31;;;;;;;;;;;;;;;18.80;19.24;97877.47;5043795;28;19936;-86
2023/12/06 06:04:57;;;;;;;;;;;;;;;19.40;18.58;97879.97;5040713;28;19925;-87
2023/12/06 06:07:24;;;;;;;;;;;;;;;19.80;18.09;97881.25;5049333;28;20396;-86
2023/12/06 06:09:50;;;;;;;;;;;;;;;19.80;18.01;97884.84;5052136;28;19924;-87
2023/12/06 06:12:16;;;;;;;;;;;;;;;20.05;18.01;97881.06;5051609;28;20365;-87
2023/12/06 06:14:42;;;;;;;;;;;;;;;20.34;17.47;97880.41;5051548;28;19923;-87
2023/12/06 06:17:08;;;;;;;;;;;;;;;20.53;17.55;97876.22;5049037;28;19917;-87
2023/12/06 06:19:35;;;;;;;;;;;;;;;20.79;17.26;97881.13;5031603;28;19996;-87
2023/12/06 06:22:01;;;;;;;;;;;;;;;21.22;16.78;97881.38;5031999;28;19940;-87
2023/12/06 06:24:27;;;;;;;;;;;;;;;21.35;16.56;97885.22;5014191;28;20304;-87
2023/12/06 06:26:53;;;;;;;;;;;;;;;21.46;16.56;97890.63;5031956;28;19917;-87
2023/12/06 06:29:19;;;;;;;;;;;;;;;21.64;16.50;97882.78;5077832;27;19921;-87
2023/12/06 06:31:45;;;;;;;;;;;;;;;22.00;16.28;97886.63;5047309;28;20019;-87
2023/12/06 06:34:11;;;;;;;;;;;;;;;22.33;15.69;97893.25;5046625;28;20393;-87
2023/12/06 06:36:37;;;;;;;;;;;;;;;21.85;16.10;97894.44;5051618;28;19917;-87
2023/12/06 06:39:03;;;;;;;;;;;;;;;21.77;16.36;97889.38;5032794;28;19964;-88
2023/12/06 06:41:30;;;;;;;;;;;;;;;21.35;16.45;97890.78;5037353;28;19940;-88
2023/12/06 06:43:56;;;;;;;;;;;;;;;20.95;16.87;97895.28;5050305;28;19965;-88
2023/12/06 06:46:22;;;;;;;;;;;;;;;21.05;16.82;97902.72;5051709;28;19924;-87
2023/12/06 06:48:48;;;;;;;;;;;;;;;20.89;16.94;97896.94;5051164;28;20332;-87
2023/12/06 06:51:14;;;;;;;;;;;;;;;20.66;17.10;97896.78;5042917;28;20027;-87
2023/12/06 06:53:40;;;;;;;;;;;;;;;20.57;17.25;97904.88;5030010;28;19924;-87
2023/12/06 06:56:06;;;;;;;;;;;;;;;20.69;17.13;97901.56;5030378;28;19917;-87
2023/12/06 06:58:32;;;;;;;;;;;;;;;20.45;17.43;97899.81;5031179;28;19998;-87
2023/12/06 07:00:58;;;;;;;;;;;;;;;20.46;17.38;97904.19;5046361;28;19921;-87
2023/12/06 07:03:24;;;;;;;;;;;;;;;20.32;17.53;97901.53;5050951;28;19925;-87
2023/12/06 07:05:51;;;;;;;;;;;;;;;20.39;17.56;97896.69;5051005;28;19921;-87
2023/12/06 07:08:17;;;;;;;;;;;;;;;20.75;17.26;97904.69;5050635;28;19917;-87
2023/12/06 07:10:47;;;;;;;;;;;;;;;21.44;16.87;97899.44;5037785;28;19921;-87
2023/12/06 07:13:13;;;;;;;;;;;;;;;22.28;16.26;97896.53;5013124;28;19924;-87
2023/12/06 07:15:39;;;;;;;;;;;;;;;22.88;15.91;97901.03;5013655;28;19926;-87
2023/12/06 07:18:05;;;;;;;;;;;;;;;23.25;15.51;97895.84;5040754;28;19921;-87
2023/12/06 07:20:31;;;;;;;;;;;;;;;23.36;15.66;97901.25;5031387;28;19924;-87
2023/12/06 07:23:00;;;;;;;;;;;;;;;23.29;15.22;97898.56;5030882;28;19963;-87
2023/12/06 07:25:26;;;;;;;;;;;;;;;22.89;15.52;97899.81;5032759;28;20007;-87
2023/12/06 07:27:52;;;;;;;;;;;;;;;22.52;15.88;97898.88;5042379;28;20278;-87
2023/12/06 07:30:18;;;;;;;;;;;;;;;21.93;16.31;97900.72;5041738;28;19921;-86
2023/12/06 07:32:45;;;;;;;;;;;;;;;21.89;16.03;97902.78;5050208;28;19968;-87
2023/12/06 07:35:12;;;;;;;;;;;;;;;22.09;16.11;97891.66;5050878;28;20034;-87
2023/12/06 07:37:38;;;;;;;;;;;;;;;22.26;15.94;97896.19;5050883;28;19917;-86
2023/12/06 07:40:07;;;;;;;;;;;;;;;22.71;15.45;97891.75;5050787;28;20381;-86
2023/12/06 07:42:33;;;;;;;;;;;;;;;22.76;15.15;97893.25;5049899;28;19932;-86
2023/12/06 07:44:59;;;;;;;;;;;;;;;22.05;15.73;97894.53;5050714;28;19952;-87
2023/12/06 07:47:25;;;;;;;;;;;;;;;22.41;15.66;97889.09;5032621;28;19921;-87
2023/12/06 07:49:51;;;;;;;;;;;;;;;22.81;14.94;97889.97;5051238;28;19912;-87
2023/12/06 07:52:17;;;;;;;;;;;;;;;22.82;15.27;97886.75;5049873;28;19920;-87
2023/12/06 07:54:46;;;;;;;;;;;;;;;22.42;15.36;97891.47;5050314;28;19921;-87
2023/12/06 07:57:13;;;;;;;;;;;;;;;22.11;15.72;97884.44;5033181;28;20286;-87
2023/12/06 07:59:40;;;;;;;;;;;;;;;21.87;15.93;97882.84;5050277;28;19917;-87
2023/12/06 08:02:06;;;;;;;;;;;;;;;21.92;16.05;97887.94;5034041;28;20290;-87
2023/12/06 08:04:32;;;;;;;;;;;;;;;21.87;16.23;97880.03;5030884;28;19922;-87
2023/12/06 08:06:59;;;;;;;;;;;;;;;22.04;16.07;97878.97;5012767;28;20330;-87
2023/12/06 08:09:27;;;;;;;;;;;;;;;22.19;16.15;97880.31;5033968;28;19920;-87
2023/12/06 08:11:53;;;;;;;;;;;;;;;21.96;16.12;97880.31;5047635;28;19927;-87
2023/12/06 08:14:20;;;;;;;;;;;;;;;21.84;16.16;97886.50;5054062;28;19969;-87
2023/12/06 08:16:46;;;;;;;;;;;;;;;21.99;16.52;97880.25;5054276;27;19977;-87
2023/12/06 08:19:12;;;;;;;;;;;;;;;22.34;16.05;97883.63;5034450;28;19940;-87
2023/12/06 08:21:38;;;;;;;;;;;;;;;22.38;16.19;97876.75;5033885;28;20027;-87
2023/12/06 08:24:06;;;;;;;;;;;;;;;22.13;16.37;97884.00;5034123;28;19917;-87
2023/12/06 08:26:32;;;;;;;;;;;;;;;21.64;16.52;97877.97;5033828;28;19925;-87
2023/12/06 08:28:58;;;;;;;;;;;;;;;21.61;16.85;97892.03;5036183;28;20397;-87
2023/12/06 08:31:25;;;;;;;;;;;;;;;21.50;16.89;97889.38;5044310;28;19928;-88
2023/12/06 08:33:51;;;;;;;;;;;;;;;21.67;16.59;97893.13;5053778;28;19921;-88
2023/12/06 08:36:17;;;;;;;;;;;;;;;21.73;16.67;97894.19;5052034;28;19925;-88
2023/12/06 08:38:44;;;;;;;;;;;;;;;22.08;16.44;97895.69;5024939;28;20267;-87
2023/12/06 08:41:10;;;;;;;;;;;;;;;21.00;17.15;97891.22;5044032;28;20285;-88
2023/12/06 08:43:37;;;;;;;;;;;;;;;19.18;19.33;97909.09;5041860;28;19924;-89
2023/12/06 08:46:04;;;;;;;;;;;;;;;18.70;19.51;97902.50;5036225;28;20325;-88
2023/12/06 08:48:30;;;;;;;;;;;;;;;18.52;19.81;97905.34;5034424;28;20293;-88
2023/12/06 08:50:56;;;;;;;;;;;;;;;19.81;18.43;97910.72;5053193;28;19916;-87
2023/12/06 08:53:23;;;;;;;;;;;;;;;20.76;17.85;97909.84;5053076;28;19956;-88
2023/12/06 08:55:49;;;;;;;;;;;;;;;20.04;18.11;97913.72;5052967;28;19917;-87
2023/12/06 08:58:15;;;;;;;;;;;;;;;19.87;18.29;97921.00;5052221;28;19928;-88
2023/12/06 09:00:41;;;;;;;;;;;;;;;20.03;18.18;97920.47;5053597;27;19930;-88
2023/12/06 09:03:07;;;;;;;;;;;;;;;20.18;18.14;97916.38;5053096;28;20469;-87
2023/12/06 09:05:34;;;;;;;;;;;;;;;19.90;18.14;97919.41;5048695;28;19920;-88
2023/12/06 09:08:00;;;;;;;;;;;;;;;19.79;18.33;97915.91;5052971;28;19931;-87
2023/12/06 09:10:28;;;;;;;;;;;;;;;20.04;18.09;97913.72;5053194;28;19920;-87
2023/12/06 09:12:54;;;;;;;;;;;;;;;20.79;17.64;97914.59;5035286;28;19932;-87
2023/12/06 09:15:20;;;;;;;;;;;;;;;21.18;17.10;97916.94;5048174;28;20313;-87
2023/12/06 09:17:47;;;;;;;;;;;;;;;21.28;16.93;97904.84;5052451;28;20373;-87
2023/12/06 09:20:13;;;;;;;;;;;;;;;21.00;16.60;97905.97;5052335;28;20359;-87
2023/12/06 09:22:39;;;;;;;;;;;;;;;20.57;17.42;97905.66;5052551;28;19917;-87
2023/12/06 09:25:06;;;;;;;;;;;;;;;21.64;16.52;97907.91;5047847;28;20301;-87
2023/12/06 09:27:32;;;;;;;;;;;;;;;20.99;16.60;97911.97;5033024;28;19921;-87
2023/12/06 09:29:58;;;;;;;;;;;;;;;19.18;17.98;97914.66;5033580;28;19973;-87
2023/12/06 09:32:24;;;;;;;;;;;;;;;17.41;19.53;97910.47;5032525;28;20426;-87
2023/12/06 09:34:50;;;;;;;;;;;;;;;15.06;22.14;97920.28;5034800;28;19991;-87
2023/12/06 09:37:17;;;;;;;;;;;;;;;14.37;23.18;97912.69;5052238;28;19969;-87
2023/12/06 09:39:43;;;;;;;;;;;;;;;13.97;23.50;97915.19;5036556;28;19925;-87
2023/12/06 09:42:12;;;;;;;;;;;;;;;13.89;23.59;97922.56;5049800;28;19917;-87
2023/12/06 09:44:39;;;;;;;;;;;;;;;14.54;22.85;97915.69;5039653;28;19921;-88
2023/12/06 09:47:05;;;;;;;;;;;;;;;13.18;24.06;97917.78;5032569;28;19917;-87
2023/12/06 09:49:31;;;;;;;;;;;;;;;11.57;26.39;97918.50;5032401;28;19917;-87
2023/12/06 09:52:29;;;;;;;;;;;;;;;11.14;27.33;97924.81;5032135;28;19917;-87
2023/12/06 09:54:57;;;;;;;;;;;;;;;12.16;25.72;97916.41;5057186;28;19921;-87
2023/12/06 09:57:23;;;;;;;;;;;;;;;11.57;26.42;97921.25;5050336;28;20054;-87
2023/12/06 09:59:50;;;;;;;;;;;;;;;13.39;24.03;97923.69;5034348;28;19917;-87
2023/12/06 10:02:17;;;;;;;;;;;;;;;12.46;25.31;97922.19;5051725;28;19931;-87
2023/12/06 10:04:43;;;;;;;;;;;;;;;13.16;24.75;97914.59;5051189;28;20289;-87
2023/12/06 10:07:10;;;;;;;;;;;;;;;14.03;23.54;97922.78;5031670;28;20004;-87
2023/12/06 10:09:36;;;;;;;;;;;;;;;13.24;24.46;97919.06;5031978;28;19963;-87
2023/12/06 10:12:08;;;;;;;;;;;;;;;13.13;24.31;97921.66;5031947;28;19918;-87
2023/12/06 10:14:35;;;;;;;;;;;;;;;14.53;23.38;97916.06;5042050;28;19969;-87
2023/12/06 10:17:02;;;;;;;;;;;;;;;13.23;24.41;97913.94;5051185;28;19924;-87
2023/12/06 10:19:29;;;;;;;;;;;;;;;12.11;26.09;97910.41;5051697;28;19920;-87
2023/12/06 10:21:58;;;;;;;;;;;;;;;12.32;25.87;97911.66;5051598;28;19939;-87
2023/12/06 10:24:24;;;;;;;;;;;;;;;12.82;25.45;97909.94;5051858;28;19921;-87
2023/12/06 10:26:59;;;;;;;;;;;;;;;13.37;24.52;97911.44;5051257;28;19925;-87
2023/12/06 10:29:26;;;;;;;;;;;;;;;12.40;25.64;97912.59;5046652;28;19921;-87
2023/12/06 10:31:52;;;;;;;;;;;;;;;12.29;25.99;97914.34;5013452;28;19928;-87
2023/12/06 10:34:19;;;;;;;;;;;;;;;13.72;24.38;97909.28;5043348;28;19982;-87
2023/12/06 10:36:46;;;;;;;;;;;;;;;13.94;23.95;97905.69;5039745;28;19917;-87
2023/12/06 10:39:13;;;;;;;;;;;;;;;14.57;23.45;97908.63;5027952;28;20285;-87
2023/12/06 10:41:41;;;;;;;;;;;;;;;16.09;21.53;97905.47;5032488;28;20000;-87
2023/12/06 10:44:09;;;;;;;;;;;;;;;15.28;22.11;97910.25;5043034;27;19924;-87
2023/12/06 10:46:36;;;;;;;;;;;;;;;16.93;20.69;97896.88;5051358;28;20024;-88
2023/12/06 10:49:03;;;;;;;;;;;;;;;15.92;21.51;97889.50;5051018;28;19919;-87
2023/12/06 10:51:29;;;;;;;;;;;;;;;18.24;19.14;97888.72;5051243;28;20032;-87
2023/12/06 10:53:59;;;;;;;;;;;;;;;19.93;17.69;97885.94;5046057;28;20008;-87
2023/12/06 10:56:27;;;;;;;;;;;;;;;20.60;17.18;97881.72;5046875;28;20377;-87
2023/12/06 10:58:54;;;;;;;;;;;;;;;20.66;16.68;97880.84;5051410;28;20023;-87
2023/12/06 11:01:22;;;;;;;;;;;;;;;19.83;17.21;97884.03;5033411;28;19952;-87
2023/12/06 11:03:49;;;;;;;;;;;;;;;19.26;17.91;97877.22;5051363;28;20015;-87
2023/12/06 11:06:38;;;;;;;;;;;;;;;18.85;18.15;97887.38;5050629;27;19944;-87
2023/12/06 11:09:13;;;;;;;;;;;;;;;18.34;18.76;97882.34;5046366;28;19956;-89
2023/12/06 11:11:54;;;;;;;;;;;;;;;19.58;17.82;97886.19;5050768;28;19928;-89
2023/12/06 11:14:32;;;;;;;;;;;;;;;20.73;16.69;97879.97;5037660;28;19924;-89
2023/12/06 11:17:16;;;;;;;;;;;;;;;21.28;16.16;97886.06;5031584;28;19944;-89
2023/12/06 11:19:42;;;;;;;;;;;;;;;21.49;15.92;97884.22;5030986;28;20409;-90
2023/12/06 11:22:08;;;;;;;;;;;;;;;18.98;17.84;97892.09;5037950;28;19930;-89
2023/12/06 11:24:35;;;;;;;;;;;;;;;19.12;18.18;97894.00;5051298;28;20289;-89
2023/12/06 11:27:02;;;;;;;;;;;;;;;19.66;17.95;97893.31;5050711;28;20313;-89
2023/12/06 11:29:28;;;;;;;;;;;;;;;19.90;17.59;97885.97;5032424;28;19921;-89
2023/12/06 11:31:58;;;;;;;;;;;;;;;20.24;17.47;97884.09;5044043;28;19925;-90
2023/12/06 11:34:34;;;;;;;;;;;;;;;19.48;17.86;97887.06;5050587;28;20283;-89
2023/12/06 11:37:03;;;;;;;;;;;;;;;19.34;18.12;97887.13;5050854;28;19952;-89
2023/12/06 11:39:29;;;;;;;;;;;;;;;19.62;18.00;97875.84;5040791;28;20420;-89
2023/12/06 11:41:56;;;;;;;;;;;;;;;18.35;19.13;97875.56;5044713;28;19997;-89
2023/12/06 11:44:22;;;;;;;;;;;;;;;18.62;19.15;97871.94;5047453;28;20380;-90
2023/12/06 11:46:50;;;;;;;;;;;;;;;17.89;19.77;97864.53;5050249;28;19920;-89
2023/12/06 11:49:17;;;;;;;;;;;;;;;17.26;20.77;97859.72;5049811;28;20012;-90
2023/12/06 11:51:43;;;;;;;;;;;;;;;17.51;20.32;97863.34;5050502;28;19959;-90
2023/12/06 11:54:11;;;;;;;;;;;;;;;17.01;20.74;97862.41;5050234;28;19917;-89
2023/12/06 11:56:37;;;;;;;;;;;;;;;19.13;19.38;97867.78;5050199;28;19917;-89
2023/12/06 11:59:05;;;;;;;;;;;;;;;19.01;19.25;97866.25;5045569;28;20031;-90
2023/12/06 12:01:32;;;;;;;;;;;;;;;19.24;18.65;97868.50;5049422;28;19993;-90
2023/12/06 12:04:01;;;;;;;;;;;;;;;19.02;18.83;97872.59;5050006;28;20437;-90
2023/12/06 12:06:28;;;;;;;;;;;;;;;18.30;19.27;97862.88;5032448;28;20028;-88
2023/12/06 12:08:55;;;;;;;;;;;;;;;17.72;20.19;97865.31;5049341;28;19961;-88
2023/12/06 12:11:21;;;;;;;;;;;;;;;17.79;20.08;97871.69;5032358;28;20354;-88
2023/12/06 12:13:47;;;;;;;;;;;;;;;16.12;21.79;97865.94;5049901;28;20510;-89
2023/12/06 12:16:16;;;;;;;;;;;;;;;15.66;22.74;97870.34;5049907;28;19920;-89
2023/12/06 12:18:42;;;;;;;;;;;;;;;16.74;21.51;97868.66;5036074;28;19921;-88
2023/12/06 12:21:11;;;;;;;;;;;;;;;14.13;24.05;97875.25;5030229;28;19953;-89
2023/12/06 12:23:37;;;;;;;;;;;;;;;13.65;25.08;97874.09;5012490;28;19913;-88
2023/12/06 12:26:03;;;;;;;;;;;;;;;13.62;25.04;97876.81;5030217;28;19917;-88
2023/12/06 12:28:29;;;;;;;;;;;;;;;12.90;26.28;97878.63;5030931;28;19926;-89
2023/12/06 12:30:58;;;;;;;;;;;;;;;12.19;26.90;97882.66;5043005;28;19921;-89
2023/12/06 12:33:25;;;;;;;;;;;;;;;13.22;25.79;97882.00;5030807;28;20412;-88
2023/12/06 12:35:51;;;;;;;;;;;;;;;14.04;24.53;97876.66;5030175;28;19917;-88
2023/12/06 12:38:17;;;;;;;;;;;;;;;14.67;23.87;97871.25;5041325;28;19921;-89
2023/12/06 12:40:43;;;;;;;;;;;;;;;14.38;24.22;97870.88;5040252;28;19921;-89
2023/12/06 12:43:10;;;;;;;;;;;;;;;14.37;24.28;97871.28;5049840;28;19916;-89
2023/12/06 12:45:37;;;;;;;;;;;;;;;15.66;22.87;97860.06;5049636;28;19916;-89